Time;durP1;ratioP1;P1;durP2;ratioP2;P2;SDS_P1;SDS_P2;PMS_P1;PMS_P2;Temp;Humidity;BMP_temperature;BMP_pressure;BME280_temperature;BME280_humidity;BME280_pressure;Samples;Min_cycle;Max_cycle;Signal;HPM_P1;HPM_P2
2022/02/24 00:00:33;;;;;;;11.10;4.60;;;;;;;10.94;37.89;95607.69;4954692;29;20195;-66
2022/02/24 00:03:02;;;;;;;11.90;4.80;;;;;;;10.63;38.81;95615.28;4955344;29;20298;-68
2022/02/24 00:05:29;;;;;;;11.23;4.32;;;;;;;10.98;38.50;95608.75;4954693;29;20614;-67
2022/02/24 00:07:56;;;;;;;16.60;4.90;;;;;;;10.48;38.62;95623.69;4955911;29;20222;-68
2022/02/24 00:10:23;;;;;;;11.98;4.85;;;;;;;10.76;38.28;95592.19;4955563;29;20198;-66
2022/02/24 00:12:50;;;;;;;11.88;4.88;;;;;;;11.67;36.98;95612.63;4956582;29;20250;-67
2022/02/24 00:15:17;;;;;;;11.32;4.25;;;;;;;11.48;37.31;95610.53;4955092;29;20294;-70
2022/02/24 00:17:44;;;;;;;18.63;5.43;;;;;;;11.05;38.20;95625.16;4955506;29;20206;-67
2022/02/24 00:20:15;;;;;;;12.43;4.63;;;;;;;10.70;38.39;95610.69;4955897;29;20204;-65
2022/02/24 00:22:42;;;;;;;11.27;4.60;;;;;;;11.00;38.49;95617.19;4956482;29;20208;-65
2022/02/24 00:25:09;;;;;;;14.80;4.57;;;;;;;10.99;38.09;95620.84;4955136;29;20211;-65
2022/02/24 00:27:37;;;;;;;14.55;4.80;;;;;;;10.24;39.04;95617.00;4957563;29;20200;-65
2022/02/24 00:30:08;;;;;;;12.55;4.13;;;;;;;10.16;39.60;95615.53;4956744;29;20232;-67
2022/02/24 00:32:35;;;;;;;13.82;4.93;;;;;;;10.84;38.44;95612.75;4957359;29;20235;-66
2022/02/24 00:35:02;;;;;;;12.15;4.97;;;;;;;10.82;38.78;95609.56;4957359;29;20203;-66
2022/02/24 00:37:29;;;;;;;15.95;5.00;;;;;;;10.55;38.58;95598.13;4957870;29;20209;-68
2022/02/24 00:39:56;;;;;;;14.85;5.00;;;;;;;10.52;38.67;95614.34;4957212;29;20206;-64
2022/02/24 00:42:23;;;;;;;12.38;4.60;;;;;;;10.48;38.91;95613.22;4957273;29;20208;-66
2022/02/24 00:44:50;;;;;;;11.25;4.35;;;;;;;10.59;38.55;95608.94;4956360;29;20188;-66
2022/02/24 00:47:17;;;;;;;11.82;4.45;;;;;;;10.61;38.22;95602.44;4957005;29;20658;-66
2022/02/24 00:49:45;;;;;;;12.75;5.03;;;;;;;10.60;38.09;95598.22;4957026;29;20209;-64
2022/02/24 00:52:12;;;;;;;13.90;4.35;;;;;;;10.18;39.75;95607.47;4957343;29;20228;-64
2022/02/24 00:54:40;;;;;;;14.38;4.63;;;;;;;10.17;39.08;95606.66;4956590;29;20637;-67
2022/02/24 00:57:07;;;;;;;15.85;4.60;;;;;;;10.12;39.03;95596.13;4956703;29;20191;-65
2022/02/24 00:59:34;;;;;;;14.70;4.55;;;;;;;9.85;39.23;95597.66;4955217;29;20200;-66
2022/02/24 01:02:00;;;;;;;11.25;4.03;;;;;;;10.05;38.68;95598.03;4955130;29;20568;-67
2022/02/24 01:04:27;;;;;;;12.48;4.25;;;;;;;9.70;39.58;95588.72;4955431;29;20192;-67
2022/02/24 01:06:55;;;;;;;20.50;4.30;;;;;;;9.84;40.00;95584.81;4953380;28;20184;-68
2022/02/24 01:09:21;;;;;;;12.77;4.82;;;;;;;10.06;39.24;95583.91;4953458;29;20207;-65
2022/02/24 01:11:49;;;;;;;13.90;5.00;;;;;;;9.83;39.59;95559.66;4954133;29;20228;-67
2022/02/24 01:14:18;;;;;;;16.52;5.05;;;;;;;9.65;39.93;95586.78;4953399;29;20246;-67
2022/02/24 01:16:45;;;;;;;11.85;4.80;;;;;;;9.40;40.75;95593.38;4954589;29;20263;-65
2022/02/24 01:19:12;;;;;;;13.30;4.78;;;;;;;9.03;41.18;95588.41;4953331;29;20653;-65
2022/02/24 01:21:39;;;;;;;16.17;5.10;;;;;;;9.40;40.83;95594.16;4953908;29;20195;-64
2022/02/24 01:24:06;;;;;;;10.48;4.18;;;;;;;9.25;40.62;95585.22;4953690;29;20575;-65
2022/02/24 01:26:33;;;;;;;9.73;4.50;;;;;;;9.59;39.84;95586.94;4953608;29;20191;-65
2022/02/24 01:29:00;;;;;;;11.57;4.38;;;;;;;9.48;40.41;95595.63;4953080;29;20675;-68
2022/02/24 01:31:27;;;;;;;10.90;5.55;;;;;;;9.17;40.25;95584.53;4953745;29;20968;-66
2022/02/24 01:33:54;;;;;;;11.45;4.70;;;;;;;8.84;41.55;95573.88;4953630;29;20200;-67
2022/02/24 01:36:21;;;;;;;11.52;4.78;;;;;;;9.09;40.98;95587.50;4953772;29;20195;-66
2022/02/24 01:38:47;;;;;;;14.13;5.10;;;;;;;9.43;40.54;95587.66;4953350;29;20200;-68
2022/02/24 01:41:14;;;;;;;27.20;5.28;;;;;;;9.58;39.96;95591.38;4953578;29;20200;-66
2022/02/24 01:43:46;;;;;;;10.05;4.32;;;;;;;9.46;40.76;95602.91;4953703;29;20255;-67
2022/02/24 01:46:16;;;;;;;11.27;4.57;;;;;;;9.39;40.09;95586.53;4954094;29;20255;-65
2022/02/24 01:48:43;;;;;;;13.73;4.97;;;;;;;9.26;40.40;95592.00;4953893;29;20235;-65
2022/02/24 01:51:10;;;;;;;12.45;4.93;;;;;;;9.62;39.85;95597.75;4954138;29;20227;-66
2022/02/24 01:53:38;;;;;;;13.27;4.88;;;;;;;9.42;40.34;95596.53;4953269;29;20296;-64
2022/02/24 01:56:05;;;;;;;12.10;4.72;;;;;;;8.87;41.43;95588.28;4953393;29;20181;-66
2022/02/24 01:58:32;;;;;;;13.38;5.43;;;;;;;9.19;40.31;95582.50;4952795;29;20207;-67
2022/02/24 02:00:59;;;;;;;11.13;4.75;;;;;;;8.84;41.38;95594.78;4956213;29;20270;-66
2022/02/24 02:03:27;;;;;;;9.82;4.38;;;;;;;9.19;40.59;95592.94;4955309;29;20200;-66
2022/02/24 02:05:59;;;;;;;10.82;4.68;;;;;;;8.92;41.45;95588.41;4953381;29;20204;-68
2022/02/24 02:08:27;;;;;;;12.27;4.82;;;;;;;9.16;41.22;95592.59;4952670;29;20187;-68
2022/02/24 02:10:54;;;;;;;17.40;5.03;;;;;;;8.97;41.49;95589.31;4952919;29;20176;-65
2022/02/24 02:13:21;;;;;;;10.30;4.40;;;;;;;8.93;41.15;95588.19;4953282;29;20214;-65
2022/02/24 02:15:51;;;;;;;12.35;4.32;;;;;;;9.17;40.88;95605.47;4915015;29;20292;-66
2022/02/24 02:18:19;;;;;;;17.05;5.32;;;;;;;8.71;41.88;95605.44;4915556;29;20197;-66
2022/02/24 02:20:46;;;;;;;14.25;5.03;;;;;;;8.51;41.82;95602.34;4918485;29;20200;-66
2022/02/24 02:23:13;;;;;;;12.48;4.72;;;;;;;8.99;41.14;95607.41;4916161;29;20186;-66
2022/02/24 02:25:40;;;;;;;13.32;4.88;;;;;;;8.72;41.53;95599.19;4914021;29;20208;-65
2022/02/24 02:28:07;;;;;;;10.43;5.07;;;;;;;9.12;41.48;95605.31;4914652;29;20216;-67
2022/02/24 02:30:33;;;;;;;8.13;4.78;;;;;;;9.36;41.02;95610.53;4914133;29;20186;-67
2022/02/24 02:33:00;;;;;;;14.73;5.18;;;;;;;8.83;40.97;95614.06;4914187;29;20228;-68
2022/02/24 02:35:27;;;;;;;16.45;5.22;;;;;;;9.12;40.93;95607.94;4914113;29;20201;-66
2022/02/24 02:37:54;;;;;;;10.50;4.95;;;;;;;9.06;40.56;95616.72;4914857;29;20197;-66
2022/02/24 02:40:21;;;;;;;13.85;5.03;;;;;;;8.72;41.38;95617.47;4913671;29;20193;-65
2022/02/24 02:42:48;;;;;;;18.42;5.53;;;;;;;8.94;41.15;95621.13;4914364;29;20251;-66
2022/02/24 02:45:15;;;;;;;12.20;4.53;;;;;;;8.69;41.21;95617.94;4913840;29;20677;-65
2022/02/24 02:47:45;;;;;;;11.55;4.93;;;;;;;9.35;40.39;95616.78;4914250;29;20202;-66
2022/02/24 02:50:13;;;;;;;8.90;4.63;;;;;;;8.44;41.49;95614.72;4914173;29;20685;-67
2022/02/24 02:52:42;;;;;;;12.40;4.47;;;;;;;8.51;41.53;95623.25;4913648;29;20217;-65
2022/02/24 02:55:11;;;;;;;15.65;5.35;;;;;;;8.96;40.47;95618.28;4913413;29;20256;-65
2022/02/24 02:57:39;;;;;;;13.18;4.47;;;;;;;8.30;41.49;95618.56;4914125;29;20685;-64
2022/02/24 03:00:09;;;;;;;16.70;4.53;;;;;;;8.13;42.62;95622.78;4914071;29;20208;-66
2022/02/24 03:02:36;;;;;;;12.98;4.70;;;;;;;8.74;42.04;95628.50;4914456;29;20612;-65
2022/02/24 03:05:04;;;;;;;14.57;4.60;;;;;;;9.38;40.42;95632.03;4913885;29;20292;-67
2022/02/24 03:07:31;;;;;;;11.55;4.35;;;;;;;8.84;41.05;95631.38;4914360;29;20201;-66
2022/02/24 03:09:58;;;;;;;16.15;4.70;;;;;;;8.89;41.26;95634.09;4913502;29;20205;-65
2022/02/24 03:12:25;;;;;;;13.43;4.18;;;;;;;8.41;41.97;95645.72;4914582;29;20224;-66
2022/02/24 03:14:52;;;;;;;12.32;4.05;;;;;;;8.74;41.43;95638.94;4936878;29;20605;-66
2022/02/24 03:17:22;;;;;;;8.20;3.60;;;;;;;8.98;40.89;95640.56;4952061;29;20199;-67
2022/02/24 03:19:50;;;;;;;13.50;4.90;;;;;;;8.58;41.53;95644.84;4951415;29;20311;-65
2022/02/24 03:22:17;;;;;;;13.35;4.60;;;;;;;8.92;40.99;95651.16;4951831;29;20204;-67
2022/02/24 03:24:44;;;;;;;10.88;4.32;;;;;;;8.53;41.41;95654.38;4950957;29;20208;-65
2022/02/24 03:27:11;;;;;;;11.40;4.45;;;;;;;8.56;40.91;95649.50;4951822;29;20212;-64
2022/02/24 03:29:39;;;;;;;11.20;4.40;;;;;;;8.63;40.68;95652.03;4950934;28;20190;-66
2022/02/24 03:32:06;;;;;;;9.77;4.75;;;;;;;8.26;41.54;95648.75;4951511;29;20236;-67
2022/02/24 03:34:35;;;;;;;8.48;4.22;;;;;;;8.58;40.97;95644.84;4951544;29;20251;-65
2022/02/24 03:37:02;;;;;;;7.85;4.03;;;;;;;8.45;41.26;95662.53;4951680;29;20195;-66
2022/02/24 03:39:29;;;;;;;12.80;4.43;;;;;;;9.04;40.30;95663.19;4951358;29;20200;-66
2022/02/24 03:41:56;;;;;;;14.07;5.30;;;;;;;9.11;40.62;95660.47;4952151;29;20180;-66
2022/02/24 03:44:23;;;;;;;11.48;4.55;;;;;;;9.19;39.99;95660.13;4950931;29;20235;-65
2022/02/24 03:46:50;;;;;;;7.85;4.40;;;;;;;8.38;41.26;95667.03;4951892;29;20206;-70
2022/02/24 03:49:37;;;;;;;10.23;4.60;;;;;;;8.83;40.95;95666.34;4951055;29;20746;-65
2022/02/24 03:52:06;;;;;;;13.50;5.10;;;;;;;8.14;41.54;95676.56;4951388;29;20235;-66
2022/02/24 03:54:33;;;;;;;15.90;4.38;;;;;;;8.57;40.66;95663.34;4951880;29;20192;-66
2022/02/24 03:57:00;;;;;;;13.15;4.28;;;;;;;7.71;42.80;95679.31;4952039;29;20270;-67
2022/02/24 03:59:27;;;;;;;9.90;4.28;;;;;;;7.80;42.38;95678.00;4950736;29;20187;-65
2022/02/24 04:01:54;;;;;;;6.75;4.32;;;;;;;8.53;41.67;95664.81;4951672;29;20231;-65
2022/02/24 04:04:22;;;;;;;10.40;5.18;;;;;;;8.18;42.09;95670.69;4950885;29;20643;-68
2022/02/24 04:06:48;;;;;;;10.63;4.53;;;;;;;8.22;42.38;95676.28;4951152;29;20177;-66
2022/02/24 04:09:15;;;;;;;13.38;4.63;;;;;;;8.24;41.49;95676.88;4950855;29;20180;-66
2022/02/24 04:11:42;;;;;;;12.00;4.32;;;;;;;8.83;41.30;95674.19;4951158;29;20220;-64
2022/02/24 04:14:09;;;;;;;12.75;5.18;;;;;;;8.52;40.53;95671.06;4950698;29;20231;-65
2022/02/24 04:16:36;;;;;;;12.95;4.40;;;;;;;8.74;40.52;95657.25;4951226;29;20679;-66
2022/02/24 04:19:03;;;;;;;13.13;4.22;;;;;;;8.81;41.00;95667.63;4951068;29;20203;-65
2022/02/24 04:21:30;;;;;;;10.57;4.18;;;;;;;8.39;41.15;95673.88;4952225;29;20242;-66
2022/02/24 04:23:57;;;;;;;11.05;4.40;;;;;;;8.66;40.51;95662.00;4951147;29;20200;-65
2022/02/24 04:26:24;;;;;;;9.90;4.20;;;;;;;8.92;40.44;95670.22;4951367;29;20200;-66
2022/02/24 04:28:51;;;;;;;11.07;4.38;;;;;;;9.02;39.69;95675.69;4951057;29;20580;-66
2022/02/24 04:31:18;;;;;;;7.05;4.20;;;;;;;9.11;39.14;95674.34;4950678;29;20290;-65
2022/02/24 04:33:45;;;;;;;10.77;3.80;;;;;;;9.13;39.41;95672.28;4950934;29;20193;-66
2022/02/24 04:36:12;;;;;;;13.10;3.80;;;;;;;8.43;39.69;95675.03;4951045;29;20195;-66
2022/02/24 04:38:39;;;;;;;9.63;3.58;;;;;;;8.39;40.57;95679.09;4950604;29;20223;-66
2022/02/24 04:41:07;;;;;;;8.40;3.80;;;;;;;9.23;38.87;95691.84;4951081;28;20217;-67
2022/02/24 04:43:34;;;;;;;7.55;3.58;;;;;;;8.74;38.99;95688.59;4953583;29;20385;-65
2022/02/24 04:46:01;;;;;;;14.68;4.07;;;;;;;8.35;39.91;95691.00;4954116;29;20591;-67
2022/02/24 04:48:29;;;;;;;6.63;3.95;;;;;;;7.97;40.08;95701.69;4953980;29;20196;-65
2022/02/24 04:50:56;;;;;;;7.13;3.67;;;;;;;8.97;38.87;95708.75;4954606;29;20204;-65
2022/02/24 04:53:23;;;;;;;6.57;3.20;;;;;;;8.64;39.77;95714.50;4954375;29;20255;-67
2022/02/24 04:55:49;;;;;;;9.13;3.35;;;;;;;7.75;40.76;95714.41;4954096;29;20188;-65
2022/02/24 04:58:16;;;;;;;8.00;3.58;;;;;;;8.37;40.54;95713.25;4954854;29;20196;-67
2022/02/24 05:00:43;;;;;;;8.40;3.67;;;;;;;8.68;39.12;95720.88;4953285;28;20207;-65
2022/02/24 05:03:10;;;;;;;9.60;3.40;;;;;;;8.30;40.40;95712.56;4953347;28;20678;-66
2022/02/24 05:05:56;;;;;;;11.23;3.75;;;;;;;8.50;39.38;95722.72;4952379;28;20718;-67
2022/02/24 05:08:23;;;;;;;7.35;3.63;;;;;;;8.96;38.43;95728.88;4953206;28;20184;-67
2022/02/24 05:10:51;;;;;;;6.95;3.03;;;;;;;8.16;39.22;95726.75;4953245;28;20203;-67
2022/02/24 05:13:20;;;;;;;8.73;3.80;;;;;;;8.95;39.18;95737.75;4954647;29;20766;-66
2022/02/24 05:15:49;;;;;;;10.80;4.30;;;;;;;9.00;38.30;95732.63;4959459;29;20327;-66
2022/02/24 05:18:16;;;;;;;8.85;3.60;;;;;;;8.55;39.23;95725.47;4955429;29;20200;-67
2022/02/24 05:20:43;;;;;;;6.75;3.55;;;;;;;8.89;38.14;95733.41;4953376;29;20279;-67
2022/02/24 05:23:10;;;;;;;9.05;3.22;;;;;;;8.20;39.38;95739.16;4954137;29;20188;-66
2022/02/24 05:25:37;;;;;;;9.85;3.70;;;;;;;7.67;40.79;95742.56;4953331;29;20219;-68
2022/02/24 05:28:06;;;;;;;11.63;4.10;;;;;;;7.99;40.34;95736.22;4954046;29;20279;-67
2022/02/24 05:30:33;;;;;;;11.82;3.95;;;;;;;8.62;39.34;95737.41;4952849;28;20219;-68
2022/02/24 05:33:00;;;;;;;10.60;3.97;;;;;;;8.83;39.00;95736.91;4953835;29;20259;-66
2022/02/24 05:35:27;;;;;;;11.52;3.78;;;;;;;7.90;40.01;95737.53;4952034;29;20214;-66
2022/02/24 05:37:54;;;;;;;11.30;3.80;;;;;;;8.10;40.52;95740.69;4954128;29;20270;-67
2022/02/24 05:40:21;;;;;;;9.52;3.63;;;;;;;8.91;38.32;95746.25;4953675;29;20200;-66
2022/02/24 05:42:48;;;;;;;7.40;3.88;;;;;;;8.39;39.75;95737.34;4953528;29;20204;-68
2022/02/24 05:45:15;;;;;;;8.18;3.63;;;;;;;8.14;39.94;95752.28;4954425;29;20200;-66
2022/02/24 05:47:43;;;;;;;25.05;13.38;;;;;;;8.99;41.02;95753.78;4953802;29;20200;-70
2022/02/24 05:50:10;;;;;;;26.80;14.70;;;;;;;8.83;39.82;95747.34;4953580;29;20298;-68
2022/02/24 05:52:37;;;;;;;15.93;7.65;;;;;;;9.30;39.13;95760.53;4953209;28;20220;-66
2022/02/24 05:55:05;;;;;;;9.20;4.93;;;;;;;8.93;38.98;95760.69;4953071;29;20210;-66
2022/02/24 05:57:32;;;;;;;11.75;5.10;;;;;;;8.62;38.67;95758.31;4953156;29;20200;-66
2022/02/24 05:59:59;;;;;;;17.98;5.30;;;;;;;8.02;40.17;95782.75;4953051;29;20215;-66
2022/02/24 06:02:26;;;;;;;9.65;4.72;;;;;;;8.54;38.87;95782.13;4953009;29;20694;-65
2022/02/24 06:04:53;;;;;;;8.15;4.40;;;;;;;8.15;39.42;95783.41;4953303;29;20351;-66
2022/02/24 06:07:20;;;;;;;12.50;4.75;;;;;;;8.32;39.42;95781.00;4954025;29;20761;-66
2022/02/24 06:09:49;;;;;;;9.18;5.00;;;;;;;8.19;39.35;95788.97;4953124;29;20223;-66
2022/02/24 06:12:16;;;;;;;16.10;5.60;;;;;;;8.02;40.10;95798.41;4953174;29;20612;-67
2022/02/24 06:14:43;;;;;;;12.07;6.32;;;;;;;8.34;45.59;95801.69;4952621;29;20243;-64
2022/02/24 06:17:10;;;;;;;107.35;64.07;;;;;;;8.12;41.68;95803.91;4953645;29;20307;-67
2022/02/24 06:19:39;;;;;;;13.27;4.90;;;;;;;8.20;40.07;95811.44;4953755;29;20206;-67
2022/02/24 06:22:06;;;;;;;11.98;4.50;;;;;;;7.72;40.59;95800.13;4953337;29;20695;-66
2022/02/24 06:24:33;;;;;;;10.65;4.55;;;;;;;8.47;39.15;95807.53;4952695;29;20198;-67
2022/02/24 06:27:00;;;;;;;13.23;5.00;;;;;;;7.95;39.38;95797.69;4952916;29;20332;-67
2022/02/24 06:29:27;;;;;;;15.55;4.63;;;;;;;8.83;38.77;95806.69;4951937;29;20188;-68
2022/02/24 06:31:54;;;;;;;10.95;4.43;;;;;;;8.33;38.85;95785.22;4952540;29;20255;-67
2022/02/24 06:34:21;;;;;;;13.05;4.68;;;;;;;8.46;38.34;95811.19;4952498;29;20302;-67
2022/02/24 06:36:48;;;;;;;8.82;4.32;;;;;;;8.57;39.16;95812.25;4953320;29;20254;-66
2022/02/24 06:39:15;;;;;;;13.80;4.82;;;;;;;8.79;37.96;95811.56;4952604;29;20697;-68
2022/02/24 06:41:42;;;;;;;9.80;4.20;;;;;;;9.29;37.48;95808.63;4953254;29;20192;-67
2022/02/24 06:44:09;;;;;;;13.10;4.93;;;;;;;9.10;37.31;95813.91;4952981;29;20207;-67
2022/02/24 06:46:37;;;;;;;10.30;4.10;;;;;;;9.43;37.55;95820.47;4952621;29;20209;-66
2022/02/24 06:49:04;;;;;;;13.23;4.40;;;;;;;9.74;36.24;95807.09;4951990;29;20796;-66
2022/02/24 06:51:32;;;;;;;13.73;4.70;;;;;;;9.15;36.99;95821.09;4952812;29;20258;-66
2022/02/24 06:54:00;;;;;;;11.10;4.40;;;;;;;9.76;36.27;95820.75;4951948;29;20223;-67
2022/02/24 06:56:27;;;;;;;11.18;4.75;;;;;;;9.50;36.88;95824.59;4952156;29;20206;-68
2022/02/24 06:58:54;;;;;;;8.60;4.38;;;;;;;9.89;36.18;95817.91;4952353;29;20196;-67
2022/02/24 07:01:21;;;;;;;9.70;4.95;;;;;;;9.77;36.26;95819.69;4952374;29;20195;-67
2022/02/24 07:03:48;;;;;;;11.13;4.60;;;;;;;9.83;36.58;95818.81;4951445;29;20295;-67
2022/02/24 07:06:15;;;;;;;9.70;4.13;;;;;;;9.74;36.28;95820.16;4951435;28;20239;-69
2022/02/24 07:08:42;;;;;;;7.43;3.78;;;;;;;9.82;35.60;95817.19;4952016;29;20232;-69
2022/02/24 07:11:10;;;;;;;9.55;4.45;;;;;;;9.95;35.67;95812.53;4952302;29;20215;-67
2022/02/24 07:13:37;;;;;;;11.63;4.40;;;;;;;10.50;35.18;95820.78;4951092;29;20693;-68
2022/02/24 07:16:23;;;;;;;11.20;4.93;;;;;;;10.81;35.25;95816.94;4952035;29;20266;-67
2022/02/24 07:18:50;;;;;;;8.68;4.78;;;;;;;11.10;35.55;95806.19;4951736;29;20554;-67
2022/02/24 07:21:17;;;;;;;10.05;4.97;;;;;;;11.11;34.39;95807.78;4951769;29;20188;-68
2022/02/24 07:23:44;;;;;;;9.52;4.78;;;;;;;11.53;35.07;95804.81;4951658;29;20230;-68
2022/02/24 07:26:11;;;;;;;10.55;4.85;;;;;;;11.37;33.84;95789.84;4951987;29;20211;-68
2022/02/24 07:28:38;;;;;;;10.88;4.60;;;;;;;11.55;34.16;95819.25;4951461;29;20210;-68
2022/02/24 07:31:05;;;;;;;10.02;4.45;;;;;;;11.18;34.26;95813.66;4951533;29;20203;-68
2022/02/24 07:33:32;;;;;;;12.63;4.50;;;;;;;11.26;33.97;95809.09;4951398;29;20231;-66
2022/02/24 07:35:59;;;;;;;12.80;4.68;;;;;;;11.58;34.18;95810.13;4953349;29;20243;-66
2022/02/24 07:38:26;;;;;;;9.85;4.43;;;;;;;11.65;34.02;95808.97;4952364;29;20314;-67
2022/02/24 07:40:53;;;;;;;10.10;4.22;;;;;;;11.19;33.18;95804.78;4951355;29;20183;-67
2022/02/24 07:43:20;;;;;;;9.27;3.80;;;;;;;11.81;33.85;95815.22;4951902;29;20204;-70
2022/02/24 07:45:47;;;;;;;10.20;3.80;;;;;;;12.09;33.18;95809.88;4951138;29;20589;-69
2022/02/24 07:48:13;;;;;;;10.20;4.07;;;;;;;12.12;33.46;95804.13;4951907;29;20210;-68
2022/02/24 07:50:40;;;;;;;7.67;3.70;;;;;;;11.80;33.09;95816.28;4951428;29;20481;-70
2022/02/24 07:53:07;;;;;;;7.33;3.37;;;;;;;11.66;33.26;95807.91;4952161;29;20479;-68
2022/02/24 07:55:34;;;;;;;5.23;2.73;;;;;;;11.08;32.76;95808.25;4951483;29;20432;-68
2022/02/24 07:58:01;;;;;;;6.47;2.40;;;;;;;11.05;33.05;95803.50;4951387;29;20476;-68
2022/02/24 08:00:28;;;;;;;5.83;2.97;;;;;;;11.12;33.49;95808.56;4951287;29;20694;-67
2022/02/24 08:02:55;;;;;;;4.77;2.77;;;;;;;11.04;33.25;95807.13;4951481;29;20443;-68
2022/02/24 08:05:23;;;;;;;9.03;3.37;;;;;;;10.65;33.93;95794.88;4951305;29;20510;-67
2022/02/24 08:07:50;;;;;;;6.57;3.00;;;;;;;10.22;33.61;95812.88;4956132;29;20447;-67
2022/02/24 08:10:19;;;;;;;5.18;2.60;;;;;;;10.48;33.60;95817.59;4953989;29;20191;-69
2022/02/24 08:12:47;;;;;;;8.32;2.70;;;;;;;10.81;33.97;95814.31;4951704;29;20211;-66
2022/02/24 08:15:20;;;;;;;10.93;2.72;;;;;;;11.10;33.89;95814.06;4950818;29;20236;-68
2022/02/24 08:17:49;;;;;;;6.15;2.85;;;;;;;10.72;33.09;95820.94;4954989;28;20187;-67
2022/02/24 08:20:16;;;;;;;4.82;2.65;;;;;;;10.53;33.62;95809.06;4937716;29;20636;-67
2022/02/24 08:22:45;;;;;;;5.72;2.53;;;;;;;10.81;33.22;95807.25;4955252;29;20213;-68
2022/02/24 08:25:14;;;;;;;4.55;2.50;;;;;;;10.84;33.39;95819.88;4954551;29;20250;-70
2022/02/24 08:27:44;;;;;;;5.10;2.50;;;;;;;10.83;32.98;95813.06;4955375;29;20208;-68
2022/02/24 08:30:13;;;;;;;6.47;2.40;;;;;;;11.09;32.92;95830.03;4954858;29;20207;-68
2022/02/24 08:32:41;;;;;;;4.43;2.35;;;;;;;11.15;32.84;95815.97;4954923;29;20199;-69
2022/02/24 08:35:10;;;;;;;9.55;2.72;;;;;;;11.48;32.59;95828.34;4954719;29;20184;-68
2022/02/24 08:37:37;;;;;;;4.87;2.53;;;;;;;11.75;32.48;95835.38;4955073;29;20195;-68
2022/02/24 08:40:05;;;;;;;4.53;2.40;;;;;;;11.53;32.15;95831.06;4954876;29;20454;-67
2022/02/24 08:42:32;;;;;;;13.07;3.40;;;;;;;11.51;33.19;95838.38;4937148;29;20451;-68
2022/02/24 08:44:59;;;;;;;9.50;3.70;;;;;;;11.41;33.13;95835.56;4954558;29;20454;-67
2022/02/24 08:47:36;;;;;;;10.93;3.20;;;;;;;11.08;33.21;95837.09;4954666;29;20207;-68
2022/02/24 08:50:04;;;;;;;8.17;3.00;;;;;;;11.21;33.37;95834.19;4954339;29;20196;-70
2022/02/24 08:52:51;;;;;;;6.47;3.70;;;;;;;11.27;33.21;95826.41;4954826;29;20810;-67
2022/02/24 08:55:18;;;;;;;5.38;3.25;;;;;;;11.45;33.43;95834.06;4954190;29;20204;-68
2022/02/24 08:57:45;;;;;;;11.43;3.60;;;;;;;11.52;33.38;95832.06;4954823;29;20184;-69
2022/02/24 09:00:13;;;;;;;10.43;4.47;;;;;;;11.28;34.34;95838.50;4954399;29;20199;-67
2022/02/24 09:02:39;;;;;;;7.93;3.67;;;;;;;11.46;35.25;95833.03;4954357;29;20447;-69
2022/02/24 09:05:07;;;;;;;10.30;2.40;;;;;;;11.36;35.99;95840.72;4954469;29;20212;-68
2022/02/24 09:07:34;;;;;;;2.97;1.80;;;;;;;11.19;36.64;95831.00;4954262;29;20203;-67
2022/02/24 09:10:21;;;;;;;3.60;2.00;;;;;;;11.10;37.42;95827.19;4954086;29;20443;-68
2022/02/24 09:12:48;;;;;;;3.28;1.98;;;;;;;11.15;37.52;95840.38;4954241;29;20196;-68
2022/02/24 09:15:15;;;;;;;5.70;2.22;;;;;;;11.14;38.03;95838.00;4953571;29;20244;-67
2022/02/24 09:17:42;;;;;;;5.10;2.60;;;;;;;11.35;38.12;95839.16;4954092;29;20207;-68
2022/02/24 09:20:10;;;;;;;4.20;2.77;;;;;;;11.71;37.07;95844.78;4953950;29;20204;-69
2022/02/24 09:22:37;;;;;;;4.57;2.38;;;;;;;11.61;36.97;95843.75;4954016;29;20447;-68
2022/02/24 09:25:05;;;;;;;4.95;3.03;;;;;;;11.54;37.14;95845.75;4953462;29;20254;-68
2022/02/24 09:27:32;;;;;;;4.07;2.33;;;;;;;11.53;37.74;95846.81;4955870;28;20633;-68
2022/02/24 09:29:59;;;;;;;3.83;2.53;;;;;;;11.33;38.13;95844.63;4953251;29;20443;-68
2022/02/24 09:32:26;;;;;;;4.72;2.10;;;;;;;11.26;38.25;95841.34;4953840;29;20195;-68
2022/02/24 09:34:53;;;;;;;6.55;2.22;;;;;;;11.59;37.80;95851.88;4953170;29;20786;-68
2022/02/24 09:37:20;;;;;;;4.80;2.10;;;;;;;11.69;37.59;95841.59;4954345;29;20234;-69
2022/02/24 09:39:48;;;;;;;2.40;1.70;;;;;;;11.82;37.30;95843.09;4953541;29;20446;-67
2022/02/24 09:42:15;;;;;;;2.27;1.77;;;;;;;11.93;37.43;95842.22;4954265;29;20203;-67
2022/02/24 09:44:42;;;;;;;3.57;1.90;;;;;;;12.25;36.87;95840.56;4953461;29;20451;-67
2022/02/24 09:47:10;;;;;;;3.27;1.80;;;;;;;12.48;36.59;95837.69;4954498;29;20439;-68
2022/02/24 09:49:40;;;;;;;7.10;1.60;;;;;;;12.37;36.67;95828.09;4953132;29;20458;-68
2022/02/24 09:52:07;;;;;;;2.90;2.03;;;;;;;12.51;36.44;95824.09;4953687;29;20450;-68
2022/02/24 09:54:34;;;;;;;6.60;2.07;;;;;;;12.92;35.54;95823.50;4953011;29;20487;-68
2022/02/24 09:57:01;;;;;;;3.27;1.50;;;;;;;13.07;35.16;95802.66;4953807;29;20443;-66
2022/02/24 09:59:28;;;;;;;2.60;1.90;;;;;;;12.96;35.50;95821.16;4953226;29;20951;-67
2022/02/24 10:01:55;;;;;;;9.00;2.63;;;;;;;12.91;35.63;95811.41;4953127;29;20498;-68
2022/02/24 10:04:25;;;;;;;6.73;3.57;;;;;;;13.07;35.47;95802.66;4952482;29;20442;-67
2022/02/24 10:06:53;;;;;;;4.50;2.80;;;;;;;13.13;34.81;95806.94;4954003;29;20547;-69
2022/02/24 10:09:28;;;;;;;4.77;2.80;;;;;;;13.02;34.63;95789.44;4953397;29;20447;-70
2022/02/24 10:12:07;;;;;;;3.90;2.40;;;;;;;14.55;33.34;95795.53;4956602;29;20466;-67
2022/02/24 10:14:35;;;;;;;5.07;2.00;;;;;;;15.07;32.79;95786.44;4961475;29;20503;-67
2022/02/24 10:17:05;;;;;;;1.40;1.30;;;;;;;14.05;31.99;95782.88;4960540;29;20447;-68
2022/02/24 10:19:37;;;;;;;2.40;1.73;;;;;;;13.35;33.09;95785.00;4960990;29;20941;-67
2022/02/24 10:22:19;;;;;;;10.73;2.50;;;;;;;14.03;33.03;95774.44;4962832;29;20447;-66
2022/02/24 10:24:55;;;;;;;6.73;2.00;;;;;;;14.02;32.35;95778.09;4960107;29;20520;-66
2022/02/24 10:27:27;;;;;;;1.50;1.17;;;;;;;14.18;32.08;95782.41;4962473;29;20431;-67
2022/02/24 10:30:19;;;;;;;2.07;1.47;;;;;;;13.34;32.09;95775.53;4963598;29;20428;-66
2022/02/24 10:32:49;;;;;;;2.00;1.13;;;;;;;13.21;32.89;95780.13;4961383;29;20448;-68
2022/02/24 10:35:26;;;;;;;1.70;1.30;;;;;;;13.40;31.86;95770.03;4955628;29;20487;-69
2022/02/24 10:37:55;;;;;;;4.50;1.53;;;;;;;13.87;31.84;95762.19;4952787;29;20538;-67
2022/02/24 10:40:23;;;;;;;3.10;1.90;;;;;;;13.35;32.87;95761.31;4951622;28;20982;-69
2022/02/24 10:42:50;;;;;;;2.47;1.77;;;;;;;13.28;32.93;95750.19;4953207;29;20439;-67
2022/02/24 10:45:17;;;;;;;2.73;1.57;;;;;;;12.73;32.71;95761.78;4952785;29;20451;-68
2022/02/24 10:47:55;;;;;;;3.67;1.70;;;;;;;12.63;33.23;95753.75;4952832;29;20489;-69
2022/02/24 10:50:53;;;;;;;3.17;1.23;;;;;;;12.63;32.71;95753.75;4952150;29;20438;-68
2022/02/24 10:53:23;;;;;;;3.50;1.30;;;;;;;12.11;32.94;95756.06;4952233;29;20487;-67
2022/02/24 10:56:03;;;;;;;4.50;1.93;;;;;;;11.33;33.98;95757.25;4952692;29;20439;-66
2022/02/24 10:58:36;;;;;;;2.10;1.50;;;;;;;12.30;33.44;95753.91;4952667;29;20447;-68
2022/02/24 11:01:18;;;;;;;6.03;2.60;;;;;;;12.86;33.34;95748.22;4956626;29;20439;-67
2022/02/24 11:03:48;;;;;;;3.20;1.97;;;;;;;13.29;32.90;95746.50;4952568;29;20489;-67
2022/02/24 11:06:18;;;;;;;2.83;1.90;;;;;;;13.18;33.11;95741.19;4952637;29;20427;-68
2022/02/24 11:08:44;;;;;;;5.37;2.00;;;;;;;12.38;33.09;95744.78;4951882;29;20432;-68
2022/02/24 11:11:21;;;;;;;3.93;2.00;;;;;;;12.59;32.95;95747.41;4952194;29;20456;-69
2022/02/24 11:13:49;;;;;;;4.20;2.67;;;;;;;13.04;32.12;95728.69;4952890;29;20503;-66
2022/02/24 11:16:19;;;;;;;4.43;2.33;;;;;;;13.44;32.34;95725.56;4953387;29;20498;-68
2022/02/24 11:18:47;;;;;;;6.63;2.23;;;;;;;13.43;32.35;95726.63;4952422;29;20491;-69
2022/02/24 11:21:17;;;;;;;4.27;1.83;;;;;;;13.38;32.36;95723.94;4951995;29;20483;-68
2022/02/24 11:23:46;;;;;;;6.20;2.80;;;;;;;13.35;31.91;95724.44;4951858;29;20624;-70
2022/02/24 11:26:31;;;;;;;3.23;2.10;;;;;;;13.00;32.23;95711.78;4951791;29;20523;-67
2022/02/24 11:29:04;;;;;;;4.00;2.20;;;;;;;13.18;31.90;95711.44;4951888;29;20518;-70
2022/02/24 11:32:06;;;;;;;4.07;2.10;;;;;;;13.02;32.54;95713.16;4952089;29;20466;-69
2022/02/24 11:35:07;;;;;;;5.63;2.40;;;;;;;12.84;32.21;95707.44;4951391;29;20489;-67
2022/02/24 11:37:41;;;;;;;2.70;2.07;;;;;;;12.08;33.01;95714.50;4951251;29;20813;-67
2022/02/24 11:40:12;;;;;;;5.10;2.00;;;;;;;12.16;32.82;95692.25;4951382;29;20458;-67